Delburne, Canada
Current Conditions -  °F | °C
As of 5:00 PM on Monday 20 Oct 2014 (Local Time) from CYQF Reporting Station
Broken Clouds Broken Clouds  
Wind Chill: 22°   Ceiling: 22000
Heat Index: 22°   Visibility: 15mi
Dew Point:   Wind: 8mph
Humidity: 27%   Direction: 170°S
Pressure: 29.55"   Gusts: NA
Location:  52.2°N, 113.23°W
Report Text: CYQF 202300Z 17007KT 15SM FEW080 BKN220 22/02 A2955 RMK CU1CI5 SLP018 DENSITY ALT 4800FT
Loading
Personal Weather Stations






























Interactive Weather Map
Tropical Storm Tracking
New forecast layout! Learn more

10-Day Weather Forecast

Advertisements
Track Severe Weather on mobile